Yeoward Addition, Illinois
Current Conditions -  °F | °C
As of 6:35 AM on Thursday 29 Jan 2015 (Local Time) from KSQI Reporting Station
Overcast Overcast  
Wind Chill: 23°   Ceiling: 1400
Heat Index: 34°   Visibility: 7mi
Dew Point: 28°   Wind: 17mph
Humidity: 81%   Direction: 330°NNW
Pressure: 29.83"   Gusts: 26mph
Location:  41.7267°N, 89.7066°W
Report Text: KSQI 291235Z AUTO 33015G23KT 7SM OVC014 01/M02 A2983 RMK AO1
Loading
Personal Weather Stations






























Interactive Weather Map New forecast layout! Learn more

10-Day Weather Forecast

Advertisements
Track Severe Weather on mobile